createdAt,value
2018-09-12T00:01:08.187Z,2.50
2018-09-12T00:03:36.645Z,3.03
2018-09-12T00:06:05.090Z,2.57
2018-09-12T00:08:33.563Z,2.00
2018-09-12T00:11:02.044Z,1.67
2018-09-12T00:13:30.489Z,1.90
2018-09-12T00:15:58.949Z,2.50
2018-09-12T00:18:27.382Z,3.20
2018-09-12T00:20:56.041Z,2.60
2018-09-12T00:23:24.514Z,2.00
2018-09-12T00:25:53.232Z,2.40
2018-09-12T00:28:21.766Z,1.43
2018-09-12T00:30:51.553Z,2.50
2018-09-12T00:33:19.990Z,2.53
2018-09-12T00:35:48.470Z,2.00
2018-09-12T00:38:17.168Z,1.77
2018-09-12T00:40:45.659Z,2.00
2018-09-12T00:43:15.663Z,1.93
2018-09-12T00:45:44.295Z,2.07
2018-09-12T00:48:12.733Z,1.80
2018-09-12T00:50:41.200Z,1.77
2018-09-12T00:53:09.670Z,2.00
2018-09-12T00:55:38.174Z,1.87
2018-09-12T00:58:06.629Z,1.57
2018-09-12T01:00:35.129Z,1.73
2018-09-12T01:03:03.570Z,1.90
2018-09-12T01:05:32.799Z,2.43
2018-09-12T01:08:01.313Z,2.00
2018-09-12T01:10:29.750Z,1.63
2018-09-12T01:12:58.183Z,2.17
2018-09-12T01:15:26.738Z,2.13
2018-09-12T01:17:55.166Z,1.77
2018-09-12T01:20:23.812Z,1.50
2018-09-12T01:22:52.443Z,1.90
2018-09-12T01:25:20.877Z,1.80
2018-09-12T01:27:53.577Z,1.73
2018-09-12T01:30:23.373Z,2.03
2018-09-12T01:32:53.010Z,1.17
2018-09-12T01:35:21.725Z,1.47
2018-09-12T01:37:50.240Z,1.67
2018-09-12T01:40:18.686Z,1.67
2018-09-12T01:42:47.154Z,1.07
2018-09-12T01:45:16.957Z,1.60
2018-09-12T01:47:45.477Z,1.60
2018-09-12T01:50:14.230Z,1.30
2018-09-12T01:52:42.710Z,2.00
2018-09-12T01:55:11.150Z,1.63
2018-09-12T01:57:39.686Z,1.87
2018-09-12T02:00:13.667Z,1.00
2018-09-12T02:02:42.281Z,1.33
2018-09-12T02:05:10.741Z,1.20
2018-09-12T02:07:39.386Z,1.50
2018-09-12T02:10:09.545Z,1.37
2018-09-12T02:12:38.011Z,1.80
2018-09-12T02:15:06.860Z,1.33
2018-09-12T02:17:35.329Z,0.90
2018-09-12T02:20:04.201Z,1.60
2018-09-12T02:22:32.881Z,1.50
2018-09-12T02:25:01.731Z,1.20
2018-09-12T02:27:30.223Z,1.47
2018-09-12T02:29:58.741Z,1.83
2018-09-12T02:32:27.313Z,2.07
2018-09-12T02:34:56.218Z,1.77
2018-09-12T02:37:24.781Z,1.70
2018-09-12T02:39:53.389Z,2.10
2018-09-12T02:42:22.526Z,1.50
2018-09-12T02:44:51.546Z,1.27
2018-09-12T02:47:25.396Z,1.10
2018-09-12T02:49:54.318Z,1.67
2018-09-12T02:52:22.766Z,1.50
2018-09-12T02:54:51.559Z,0.90
2018-09-12T02:57:19.982Z,1.63
2018-09-12T02:59:48.441Z,1.70
2018-09-12T03:02:16.939Z,1.43
2018-09-12T03:04:45.403Z,0.90
2018-09-12T03:07:13.938Z,1.53
2018-09-12T03:09:42.544Z,1.20
2018-09-12T03:12:10.973Z,1.27
2018-09-12T03:14:39.393Z,1.67
2018-09-12T03:17:07.842Z,1.53
2018-09-12T03:19:36.306Z,1.60
2018-09-12T03:22:04.901Z,1.53
2018-09-12T03:24:33.680Z,1.20
2018-09-12T03:27:02.266Z,1.20
2018-09-12T03:29:30.750Z,1.40
2018-09-12T03:31:59.354Z,1.80
2018-09-12T03:34:27.842Z,1.37
2018-09-12T03:36:56.842Z,1.93
2018-09-12T03:39:25.455Z,0.70
2018-09-12T03:41:53.877Z,1.60
2018-09-12T03:44:22.330Z,1.87
2018-09-12T03:46:50.781Z,1.50
2018-09-12T03:49:19.204Z,1.63
2018-09-12T03:51:47.637Z,1.77
2018-09-12T03:54:16.122Z,0.90
2018-09-12T03:56:45.261Z,1.70
2018-09-12T03:59:14.398Z,1.73
2018-09-12T04:01:42.926Z,1.60
2018-09-12T04:04:11.357Z,1.93
2018-09-12T04:06:39.802Z,1.80
2018-09-12T04:09:09.221Z,1.53
2018-09-12T04:11:37.685Z,1.17
2018-09-12T04:14:06.193Z,1.70
2018-09-12T04:16:34.697Z,1.80
2018-09-12T04:19:03.141Z,2.40
2018-09-12T04:21:31.621Z,1.37
2018-09-12T04:24:00.093Z,1.57
2018-09-12T04:26:28.554Z,1.93
2018-09-12T04:28:57.423Z,2.20
2018-09-12T04:31:25.894Z,1.73
2018-09-12T04:33:54.337Z,2.27
2018-09-12T04:36:22.806Z,2.30
2018-09-12T04:38:52.142Z,2.07
2018-09-12T04:41:20.598Z,2.23
2018-09-12T04:43:49.030Z,1.90
2018-09-12T04:46:17.477Z,1.70
2018-09-12T04:48:45.953Z,2.40
2018-09-12T04:51:14.389Z,1.33
2018-09-12T04:53:42.865Z,2.30
2018-09-12T04:56:11.434Z,1.77
2018-09-12T04:58:41.221Z,2.60
2018-09-12T05:01:10.050Z,1.60
2018-09-12T05:03:38.485Z,1.90
2018-09-12T05:06:07.176Z,1.73
2018-09-12T05:08:35.661Z,2.23
2018-09-12T05:11:04.098Z,1.80
2018-09-12T05:13:32.552Z,2.53
2018-09-12T05:16:01.078Z,2.80
2018-09-12T05:18:29.465Z,1.37
2018-09-12T05:20:57.923Z,2.30
2018-09-12T05:23:26.418Z,1.63
2018-09-12T05:25:54.874Z,2.30
2018-09-12T05:28:23.376Z,3.37
2018-09-12T05:30:53.217Z,2.30
2018-09-12T05:33:22.034Z,2.13
2018-09-12T05:35:50.550Z,2.10
2018-09-12T05:38:19.284Z,1.77
2018-09-12T05:40:48.000Z,2.43
2018-09-12T05:43:16.455Z,2.17
2018-09-12T05:45:44.968Z,2.77
2018-09-12T05:48:13.456Z,2.50
2018-09-12T05:50:41.902Z,2.77
2018-09-12T05:53:10.390Z,2.70
2018-09-12T05:55:38.832Z,2.13
2018-09-12T05:58:07.618Z,1.87
2018-09-12T06:00:36.194Z,2.90
2018-09-12T06:03:04.783Z,2.67
2018-09-12T06:05:33.269Z,2.67
2018-09-12T06:08:01.851Z,2.40
2018-09-12T06:10:30.295Z,2.40
2018-09-12T06:12:58.721Z,2.20
2018-09-12T06:15:27.177Z,1.83
2018-09-12T06:17:55.717Z,2.87
2018-09-12T06:20:24.176Z,2.23
2018-09-12T06:22:52.653Z,2.13
2018-09-12T06:25:27.229Z,2.30
2018-09-12T06:27:55.745Z,1.67
2018-09-12T06:30:33.098Z,2.07
2018-09-12T06:33:02.873Z,2.57
2018-09-12T06:35:31.399Z,1.17
2018-09-12T06:37:59.881Z,1.97
2018-09-12T06:40:28.447Z,2.47
2018-09-12T06:42:57.462Z,2.67
2018-09-12T06:45:25.897Z,1.90
2018-09-12T06:47:54.428Z,2.10
2018-09-12T06:50:22.873Z,2.80
2018-09-12T06:52:51.410Z,2.07
2018-09-12T06:55:19.874Z,2.30
2018-09-12T06:57:48.414Z,3.33
2018-09-12T07:00:16.889Z,2.10
2018-09-12T07:02:46.238Z,1.53
2018-09-12T07:05:15.083Z,2.83
2018-09-12T07:07:43.613Z,1.77
2018-09-12T07:10:12.156Z,2.27
2018-09-12T07:12:40.600Z,1.90
2018-09-12T07:15:09.093Z,2.20
2018-09-12T07:17:37.545Z,1.80
2018-09-12T07:20:06.042Z,1.42
2018-09-12T07:22:34.474Z,2.00
2018-09-12T07:25:02.948Z,2.45
2018-09-12T07:27:31.389Z,2.12
2018-09-12T07:29:59.901Z,1.95
2018-09-12T07:32:28.357Z,1.42
2018-09-12T07:34:56.937Z,1.50
2018-09-12T07:37:25.881Z,1.77
2018-09-12T07:39:54.517Z,2.50
2018-09-12T07:42:23.246Z,1.52
2018-09-12T07:44:52.143Z,2.33
2018-09-12T07:47:20.621Z,2.25
2018-09-12T07:49:49.049Z,2.05
2018-09-12T07:52:17.481Z,2.40
2018-09-12T07:54:46.014Z,1.90
2018-09-12T07:57:14.503Z,2.15
2018-09-12T07:59:43.694Z,1.80
2018-09-12T08:02:12.227Z,1.90
2018-09-12T08:04:41.580Z,1.85
2018-09-12T08:07:10.020Z,2.10
2018-09-12T08:09:38.465Z,2.22
2018-09-12T08:12:06.927Z,2.22
2018-09-12T08:14:35.355Z,2.27
2018-09-12T08:17:03.853Z,2.25
2018-09-12T08:19:32.282Z,2.35
2018-09-12T08:22:00.702Z,2.45
2018-09-12T08:24:29.174Z,1.98
2018-09-12T08:26:57.864Z,1.98
2018-09-12T08:29:26.350Z,1.47
2018-09-12T08:31:54.830Z,2.52
2018-09-12T08:34:23.261Z,2.37
2018-09-12T08:36:51.861Z,2.27
2018-09-12T08:39:20.364Z,2.15
2018-09-12T08:41:48.830Z,2.33
2018-09-12T08:44:17.386Z,2.60
2018-09-12T08:46:45.945Z,2.52
2018-09-12T08:49:15.080Z,1.90
2018-09-12T08:51:44.178Z,2.00
2018-09-12T08:54:12.721Z,2.25
2018-09-12T08:56:41.204Z,2.02
2018-09-12T08:59:09.601Z,1.98
2018-09-12T09:01:38.221Z,2.25
2018-09-12T09:04:07.104Z,1.72
2018-09-12T09:06:35.850Z,1.92
2018-09-12T09:09:06.750Z,2.10
2018-09-12T09:11:35.287Z,2.30
2018-09-12T09:14:04.786Z,2.42
2018-09-12T09:16:33.358Z,1.47
2018-09-12T09:19:02.476Z,2.25
2018-09-12T09:21:31.547Z,1.98
2018-09-12T09:24:00.155Z,1.90
2018-09-12T09:26:28.582Z,1.80
2018-09-12T09:28:57.213Z,2.02
2018-09-12T09:31:25.722Z,1.95
2018-09-12T09:33:54.302Z,1.87
2018-09-12T09:36:22.997Z,2.00
2018-09-12T09:38:51.897Z,1.87
2018-09-12T09:41:20.369Z,0.90
2018-09-12T09:43:48.791Z,1.67
2018-09-12T09:46:17.266Z,1.77
2018-09-12T09:48:45.990Z,1.75
2018-09-12T09:51:15.081Z,1.50
2018-09-12T09:53:44.500Z,1.82
2018-09-12T09:56:13.903Z,1.10
2018-09-12T09:58:43.253Z,2.00
2018-09-12T10:01:16.974Z,1.55
2018-09-12T10:03:51.158Z,1.52
2018-09-12T10:06:20.606Z,1.20
2018-09-12T10:08:56.946Z,1.67
2018-09-12T10:11:25.501Z,1.20
2018-09-12T10:13:53.969Z,1.67
2018-09-12T10:16:22.956Z,1.27
2018-09-12T10:18:51.470Z,1.05
2018-09-12T10:21:19.899Z,1.70
2018-09-12T10:23:48.442Z,1.30
2018-09-12T10:26:18.012Z,0.93
2018-09-12T10:28:46.483Z,1.12
2018-09-12T10:31:15.250Z,1.50
2018-09-12T10:33:43.752Z,1.17
2018-09-12T10:36:12.181Z,1.60
2018-09-12T10:38:40.613Z,1.67
2018-09-12T10:41:09.468Z,1.20
2018-09-12T10:43:37.869Z,1.22
2018-09-12T10:46:06.358Z,1.17
2018-09-12T10:48:34.840Z,1.25
2018-09-12T10:51:03.315Z,1.52
2018-09-12T10:53:31.950Z,1.57
2018-09-12T10:56:00.423Z,2.08
2018-09-12T10:58:29.399Z,1.50
2018-09-12T11:00:57.847Z,1.55
2018-09-12T11:03:26.365Z,1.87
2018-09-12T11:05:54.785Z,1.65
2018-09-12T11:08:23.377Z,1.15
2018-09-12T11:10:52.338Z,2.08
2018-09-12T11:13:20.775Z,1.30
2018-09-12T11:15:49.764Z,1.10
2018-09-12T11:18:18.234Z,1.30
2018-09-12T11:20:46.729Z,1.27
2018-09-12T11:23:15.153Z,1.47
2018-09-12T11:25:45.126Z,1.17
2018-09-12T11:28:13.541Z,1.20
2018-09-12T11:30:42.278Z,0.98
2018-09-12T11:33:11.202Z,1.15
2018-09-12T11:35:39.630Z,1.07
2018-09-12T11:38:08.088Z,1.10
2018-09-12T11:40:36.591Z,1.40
2018-09-12T11:43:05.210Z,1.20
2018-09-12T11:45:33.653Z,1.42
2018-09-12T11:48:02.125Z,0.80
2018-09-12T11:50:30.661Z,0.98
2018-09-12T11:52:59.124Z,1.00
2018-09-12T11:55:27.604Z,0.95
2018-09-12T11:57:56.080Z,0.95
2018-09-12T12:00:24.514Z,0.68
2018-09-12T12:02:52.997Z,1.10
2018-09-12T12:05:21.830Z,1.22
2018-09-12T12:07:50.966Z,1.35
2018-09-12T12:10:19.543Z,1.60
2018-09-12T12:12:48.090Z,0.70
2018-09-12T12:15:16.565Z,1.05
2018-09-12T12:17:45.071Z,0.75
2018-09-12T12:20:14.147Z,1.37
2018-09-12T12:22:42.674Z,1.15
2018-09-12T12:25:11.265Z,1.22
2018-09-12T12:27:39.802Z,1.20
2018-09-12T12:30:08.273Z,1.50
2018-09-12T12:32:36.850Z,1.30
2018-09-12T12:35:05.439Z,0.90
2018-09-12T12:37:33.933Z,1.25
2018-09-12T12:40:02.422Z,1.65
2018-09-12T12:42:30.854Z,0.90
2018-09-12T12:44:59.466Z,1.17
2018-09-12T12:47:28.280Z,1.22
2018-09-12T12:49:57.063Z,1.05
2018-09-12T12:52:25.517Z,1.40
2018-09-12T12:54:54.050Z,1.02
2018-09-12T12:57:23.073Z,1.20
2018-09-12T12:59:51.498Z,1.10
2018-09-12T13:02:19.986Z,1.00
2018-09-12T13:04:48.425Z,1.95
2018-09-12T13:07:16.898Z,1.60
2018-09-12T13:09:45.374Z,1.05
2018-09-12T13:12:13.814Z,1.40
2018-09-12T13:14:42.557Z,1.12
2018-09-12T13:17:11.011Z,0.95
2018-09-12T13:19:39.458Z,1.30
2018-09-12T13:22:07.913Z,1.30
2018-09-12T13:24:36.402Z,1.20
2018-09-12T13:27:04.830Z,1.20
2018-09-12T13:29:33.379Z,1.40
2018-09-12T13:32:01.993Z,1.10
2018-09-12T13:34:30.763Z,1.27
2018-09-12T13:36:59.146Z,1.27
2018-09-12T13:39:28.791Z,1.12
2018-09-12T13:41:57.223Z,1.27
2018-09-12T13:44:25.732Z,1.25
2018-09-12T13:46:54.329Z,1.05
2018-09-12T13:49:22.760Z,1.40
2018-09-12T13:51:51.915Z,1.12
2018-09-12T13:54:20.416Z,1.20
2018-09-12T13:56:49.188Z,0.93
2018-09-12T13:59:17.628Z,0.88
2018-09-12T14:01:46.916Z,1.30
2018-09-12T14:04:16.226Z,1.55
2018-09-12T14:06:44.729Z,0.98
2018-09-12T14:09:13.221Z,0.80
2018-09-12T14:11:41.690Z,1.72
2018-09-12T14:14:10.420Z,0.98
2018-09-12T14:16:39.396Z,1.17
2018-09-12T14:19:07.854Z,1.20
2018-09-12T14:21:36.292Z,1.22
2018-09-12T14:24:04.918Z,0.62
2018-09-12T14:26:33.354Z,0.70
2018-09-12T14:29:01.781Z,1.27
2018-09-12T14:31:30.653Z,1.12
2018-09-12T14:33:59.133Z,0.75
2018-09-12T14:36:27.574Z,0.90
2018-09-12T14:38:56.082Z,1.20
2018-09-12T14:41:24.526Z,1.15
2018-09-12T14:43:52.962Z,1.20
2018-09-12T14:46:21.470Z,1.07
2018-09-12T14:48:50.069Z,1.20
2018-09-12T14:51:18.510Z,1.40
2018-09-12T14:53:47.073Z,1.17
2018-09-12T14:56:16.075Z,1.12
2018-09-12T14:58:44.809Z,1.07
2018-09-12T15:01:13.595Z,1.17
2018-09-12T15:03:42.051Z,1.20
2018-09-12T15:06:10.755Z,1.20
2018-09-12T15:08:39.240Z,0.95
2018-09-12T15:11:07.733Z,1.55
2018-09-12T15:13:36.177Z,0.70
2018-09-12T15:16:04.931Z,1.17
2018-09-12T15:18:33.706Z,1.15
2018-09-12T15:21:02.145Z,0.82
2018-09-12T15:23:30.602Z,0.90
2018-09-12T15:25:59.042Z,1.37
2018-09-12T15:28:27.506Z,1.00
2018-09-12T15:30:56.475Z,1.22
2018-09-12T15:33:25.028Z,1.10
2018-09-12T15:35:53.502Z,1.20
2018-09-12T15:38:22.445Z,1.17
2018-09-12T15:40:50.951Z,0.72
2018-09-12T15:43:19.459Z,0.82
2018-09-12T15:45:47.930Z,1.02
2018-09-12T15:48:17.003Z,1.00
2018-09-12T15:50:46.071Z,1.10
2018-09-12T15:53:14.749Z,1.07
2018-09-12T15:55:43.187Z,0.98
2018-09-12T15:58:11.644Z,0.80
2018-09-12T16:00:40.118Z,1.02
2018-09-12T16:03:08.553Z,1.05
2018-09-12T16:05:37.066Z,1.45
2018-09-12T16:08:05.794Z,0.80
2018-09-12T16:10:34.245Z,1.12
2018-09-12T16:13:02.717Z,1.17
2018-09-12T16:15:31.198Z,0.50
2018-09-12T16:18:00.337Z,1.07
2018-09-12T16:20:28.997Z,2.65
2018-09-12T16:22:57.450Z,1.30
2018-09-12T16:25:25.935Z,1.30
2018-09-12T16:27:54.381Z,1.12
2018-09-12T16:30:22.844Z,1.02
2018-09-12T16:32:51.363Z,0.90
2018-09-12T16:35:19.893Z,1.17
2018-09-12T16:37:48.357Z,0.93
2018-09-12T16:40:17.101Z,0.85
2018-09-12T16:42:46.034Z,1.35
2018-09-12T16:45:14.862Z,1.00
2018-09-12T16:47:43.705Z,0.88
2018-09-12T16:50:12.141Z,1.10
2018-09-12T16:52:40.950Z,1.00
2018-09-12T16:55:09.397Z,1.20
2018-09-12T16:57:37.821Z,0.80
2018-09-12T17:00:06.400Z,1.02
2018-09-12T17:02:35.138Z,1.25
2018-09-12T17:05:03.693Z,1.10
2018-09-12T17:07:32.146Z,0.90
2018-09-12T17:10:00.568Z,0.90
2018-09-12T17:12:29.346Z,1.20
2018-09-12T17:14:57.818Z,1.50
2018-09-12T17:17:26.261Z,1.60
2018-09-12T17:19:54.719Z,1.03
2018-09-12T17:22:23.312Z,0.70
2018-09-12T17:24:51.743Z,0.87
2018-09-12T17:27:20.163Z,1.37
2018-09-12T17:29:48.881Z,0.67
2018-09-12T17:32:17.357Z,1.30
2018-09-12T17:34:46.525Z,1.40
2018-09-12T17:37:15.548Z,1.00
2018-09-12T17:39:44.769Z,0.90
2018-09-12T17:42:13.208Z,1.30
2018-09-12T17:44:41.679Z,0.60
2018-09-12T17:47:10.133Z,1.30
2018-09-12T17:49:38.593Z,1.27
2018-09-12T17:52:07.097Z,1.10
2018-09-12T17:54:35.829Z,0.90
2018-09-12T17:57:04.303Z,0.97
2018-09-12T17:59:32.766Z,0.73
2018-09-12T18:02:01.498Z,1.07
2018-09-12T18:04:29.925Z,1.00
2018-09-12T18:06:58.370Z,1.10
2018-09-12T18:09:26.802Z,1.07
2018-09-12T18:11:55.298Z,0.87
2018-09-12T18:14:23.833Z,1.10
2018-09-12T18:16:52.285Z,1.23
2018-09-12T18:19:20.737Z,0.80
2018-09-12T18:21:49.289Z,0.83
2018-09-12T18:24:17.877Z,1.33
2018-09-12T18:26:46.381Z,1.17
2018-09-12T18:29:15.685Z,0.73
2018-09-12T18:31:44.134Z,1.17
2018-09-12T18:34:12.569Z,0.90
2018-09-12T18:36:41.332Z,1.50
2018-09-12T18:39:10.466Z,0.90
2018-09-12T18:41:38.942Z,1.13
2018-09-12T18:44:08.179Z,1.10
2018-09-12T18:46:36.639Z,0.90
2018-09-12T18:49:05.122Z,1.10
2018-09-12T18:51:33.618Z,1.10
2018-09-12T18:54:02.159Z,1.13
2018-09-12T18:56:30.681Z,1.23
2018-09-12T18:58:59.211Z,0.70
2018-09-12T19:01:27.694Z,1.10
2018-09-12T19:03:56.138Z,0.83
2018-09-12T19:06:24.633Z,1.10
2018-09-12T19:08:53.118Z,1.23
2018-09-12T19:11:21.666Z,0.90
2018-09-12T19:13:50.162Z,1.20
2018-09-12T19:16:18.634Z,0.87
2018-09-12T19:18:47.179Z,1.33
2018-09-12T19:21:16.560Z,1.07
2018-09-12T19:23:45.366Z,0.90
2018-09-12T19:26:14.274Z,1.13
2018-09-12T19:28:42.812Z,0.90
2018-09-12T19:31:11.259Z,1.20
2018-09-12T19:33:39.736Z,1.30
2018-09-12T19:36:08.517Z,1.33
2018-09-12T19:38:36.981Z,1.47
2018-09-12T19:41:05.437Z,0.90
2018-09-12T19:43:33.939Z,1.23
2018-09-12T19:46:02.414Z,1.17
2018-09-12T19:48:30.849Z,1.17
2018-09-12T19:50:59.348Z,1.00
2018-09-12T19:53:27.809Z,1.07
2018-09-12T19:55:56.269Z,1.17
2018-09-12T19:58:24.949Z,0.90
2018-09-12T20:00:53.969Z,1.00
2018-09-12T20:03:22.458Z,1.30
2018-09-12T20:05:50.973Z,1.00
2018-09-12T20:08:19.414Z,1.33
2018-09-12T20:10:47.891Z,1.00
2018-09-12T20:13:16.926Z,1.13
2018-09-12T20:15:45.457Z,1.33
2018-09-12T20:18:14.448Z,1.53
2018-09-12T20:20:42.989Z,1.10
2018-09-12T20:23:11.455Z,0.90
2018-09-12T20:25:40.094Z,1.57
2018-09-12T20:28:08.997Z,1.00
2018-09-12T20:30:37.446Z,1.20
2018-09-12T20:33:05.926Z,1.03
2018-09-12T20:35:34.419Z,1.20
2018-09-12T20:38:03.196Z,1.30
2018-09-12T20:40:31.681Z,0.97
2018-09-12T20:43:00.187Z,1.17
2018-09-12T20:45:28.640Z,1.00
2018-09-12T20:47:57.094Z,0.90
2018-09-12T20:50:25.641Z,0.80
2018-09-12T20:52:54.099Z,0.87
2018-09-12T20:55:22.529Z,1.00
2018-09-12T20:57:51.247Z,1.37
2018-09-12T21:00:19.958Z,0.93
2018-09-12T21:02:48.517Z,0.90
2018-09-12T21:05:17.097Z,1.13
2018-09-12T21:07:45.638Z,1.10
2018-09-12T21:10:14.089Z,0.77
2018-09-12T21:12:42.547Z,0.60
2018-09-12T21:15:10.986Z,0.80
2018-09-12T21:17:39.439Z,0.90
2018-09-12T21:20:08.000Z,0.90
2018-09-12T21:22:36.428Z,1.20
2018-09-12T21:25:04.953Z,1.53
2018-09-12T21:27:33.432Z,1.10
2018-09-12T21:30:02.141Z,1.10
2018-09-12T21:32:30.589Z,0.80
2018-09-12T21:34:59.065Z,1.10
2018-09-12T21:37:28.221Z,0.87
2018-09-12T21:39:56.672Z,1.27
2018-09-12T21:42:25.505Z,1.00
2018-09-12T21:44:54.481Z,0.83
2018-09-12T21:47:22.933Z,1.10
2018-09-12T21:49:51.419Z,0.70
2018-09-12T21:52:20.481Z,1.00
2018-09-12T21:54:48.929Z,0.90
2018-09-12T21:57:17.452Z,0.70
2018-09-12T21:59:45.901Z,0.67
2018-09-12T22:02:14.865Z,1.00
2018-09-12T22:04:43.353Z,0.67
2018-09-12T22:07:11.970Z,0.73
2018-09-12T22:09:40.424Z,1.33
2018-09-12T22:12:08.977Z,0.87
2018-09-12T22:14:37.403Z,1.17
2018-09-12T22:17:05.935Z,0.80
2018-09-12T22:19:34.824Z,0.87
2018-09-12T22:22:03.262Z,0.87
2018-09-12T22:24:31.734Z,0.97
2018-09-12T22:27:00.203Z,0.60
2018-09-12T22:29:29.017Z,1.03
2018-09-12T22:31:57.683Z,1.13
2018-09-12T22:34:26.160Z,0.80
2018-09-12T22:36:54.907Z,1.03
2018-09-12T22:39:23.349Z,0.70
2018-09-12T22:41:51.826Z,0.90
2018-09-12T22:44:20.361Z,1.07
2018-09-12T22:46:48.813Z,1.07
2018-09-12T22:49:17.265Z,0.80
2018-09-12T22:51:46.325Z,1.00
2018-09-12T22:54:14.757Z,0.73
2018-09-12T22:56:43.217Z,0.67
2018-09-12T22:59:11.657Z,1.20
2018-09-12T23:01:40.083Z,0.70
2018-09-12T23:04:09.006Z,1.07
2018-09-12T23:06:37.911Z,1.00
2018-09-12T23:09:08.265Z,0.90
2018-09-12T23:11:36.777Z,0.80
2018-09-12T23:14:06.043Z,0.70
2018-09-12T23:16:34.467Z,0.73
2018-09-12T23:19:02.950Z,0.97
2018-09-12T23:21:31.414Z,0.60
2018-09-12T23:23:59.885Z,1.03
2018-09-12T23:26:28.405Z,1.13
2018-09-12T23:28:56.826Z,1.07
2018-09-12T23:31:25.687Z,0.70
2018-09-12T23:33:54.514Z,1.17
2018-09-12T23:36:23.309Z,0.90
2018-09-12T23:38:51.793Z,1.07
2018-09-12T23:41:20.270Z,0.93
2018-09-12T23:43:49.041Z,1.07
2018-09-12T23:46:17.753Z,1.10
2018-09-12T23:48:46.953Z,1.10
2018-09-12T23:51:15.383Z,0.53
2018-09-12T23:53:43.810Z,1.00
2018-09-12T23:56:12.273Z,0.83
2018-09-12T23:58:40.843Z,1.07
